createdAt,value
2019-06-07T00:00:51.298Z,100182.00
2019-06-07T00:03:27.446Z,100181.00
2019-06-07T00:05:52.049Z,100181.00
2019-06-07T00:08:27.846Z,100191.00
2019-06-07T00:10:52.666Z,100193.00
2019-06-07T00:13:22.101Z,100184.00
2019-06-07T00:15:51.595Z,100197.00
2019-06-07T00:18:25.993Z,100185.00
2019-06-07T00:20:52.294Z,100192.00
2019-06-07T00:23:22.920Z,100191.00
2019-06-07T00:25:52.642Z,100188.00
2019-06-07T00:28:22.107Z,100192.00
2019-06-07T00:30:52.737Z,100192.00
2019-06-07T00:33:24.757Z,100197.00
2019-06-07T00:35:53.647Z,100198.00
2019-06-07T00:38:23.085Z,100204.00
2019-06-07T00:40:52.539Z,100197.00
2019-06-07T00:43:28.010Z,100202.00
2019-06-07T00:45:53.204Z,100199.00
2019-06-07T00:48:31.292Z,100203.00
2019-06-07T00:50:53.869Z,100211.00
2019-06-07T00:53:31.771Z,100203.00
2019-06-07T00:55:54.512Z,100221.00
2019-06-07T00:58:27.469Z,100225.00
2019-06-07T01:00:55.281Z,100218.00
2019-06-07T01:03:25.880Z,100221.00
2019-06-07T01:05:55.572Z,100227.00
2019-06-07T01:08:29.879Z,100215.00
2019-06-07T01:10:56.282Z,100220.00
2019-06-07T01:13:26.968Z,100220.00
2019-06-07T01:15:56.559Z,100219.00
2019-06-07T01:18:37.384Z,100226.00
2019-06-07T01:21:20.622Z,100226.00
2019-06-07T01:24:08.257Z,100223.00
2019-06-07T01:26:21.869Z,100216.00
2019-06-07T01:28:50.311Z,100219.00
2019-06-07T01:31:22.231Z,100225.00
2019-06-07T01:33:51.509Z,100215.00
2019-06-07T01:36:22.418Z,100209.00
2019-06-07T01:38:52.403Z,100216.00
2019-06-07T01:41:25.273Z,100214.00
2019-06-07T01:43:52.997Z,100214.00
2019-06-07T01:46:25.339Z,100217.00
2019-06-07T01:48:53.676Z,100223.00
2019-06-07T01:51:24.441Z,100224.00
2019-06-07T01:54:41.386Z,100233.00
2019-06-07T01:56:29.253Z,100238.00
2019-06-07T01:58:56.870Z,100238.00
2019-06-07T02:01:29.701Z,100253.00
2019-06-07T02:03:57.493Z,100245.00
2019-06-07T02:06:31.375Z,100247.00
2019-06-07T02:08:58.279Z,100252.00
2019-06-07T02:11:29.415Z,100255.00
2019-06-07T02:13:58.922Z,100260.00
2019-06-07T02:16:32.032Z,100262.00
2019-06-07T02:19:02.097Z,100269.00
2019-06-07T02:21:34.084Z,100268.00
2019-06-07T02:24:01.983Z,100268.00
2019-06-07T02:26:32.617Z,100275.00
2019-06-07T02:29:02.305Z,100269.00
2019-06-07T02:31:38.615Z,100272.00
2019-06-07T02:34:02.903Z,100271.00
2019-06-07T02:36:39.236Z,100283.00
2019-06-07T02:39:05.088Z,100283.00
2019-06-07T02:41:39.207Z,100291.00
2019-06-07T02:44:06.141Z,100294.00
2019-06-07T02:46:45.824Z,100293.00
2019-06-07T02:49:06.804Z,100286.00
2019-06-07T02:51:41.480Z,100279.00
2019-06-07T02:54:07.460Z,100279.00
2019-06-07T02:56:54.120Z,100282.00
2019-06-07T02:59:08.128Z,100273.00
2019-06-07T03:01:41.375Z,100292.00
2019-06-07T03:04:09.732Z,100303.00
2019-06-07T03:06:43.789Z,100310.00
2019-06-07T03:09:12.110Z,100304.00
2019-06-07T03:11:45.449Z,100298.00
2019-06-07T03:14:18.435Z,100290.00
2019-06-07T03:17:00.483Z,100296.00
2019-06-07T03:19:37.341Z,100309.00
2019-06-07T03:22:05.708Z,100320.00
2019-06-07T03:24:41.711Z,100330.00
2019-06-07T03:27:34.206Z,100325.00
2019-06-07T03:29:41.159Z,100319.00
2019-06-07T03:32:10.503Z,100309.00
2019-06-07T03:34:43.545Z,100310.00
2019-06-07T03:37:11.148Z,100310.00
2019-06-07T03:39:41.185Z,100319.00
2019-06-07T03:42:10.845Z,100318.00
2019-06-07T03:44:41.605Z,100314.00
2019-06-07T03:47:11.389Z,100331.00
2019-06-07T03:49:42.487Z,100324.00
2019-06-07T03:52:12.030Z,100321.00
2019-06-07T03:54:41.480Z,100326.00
2019-06-07T03:57:10.943Z,100345.00
2019-06-07T03:59:41.583Z,100340.00
2019-06-07T04:02:11.309Z,100352.00
2019-06-07T04:04:40.746Z,100360.00
2019-06-07T04:07:10.203Z,100354.00
2019-06-07T04:09:42.865Z,100360.00
2019-06-07T04:12:10.856Z,100349.00
2019-06-07T04:14:42.536Z,100350.00
2019-06-07T04:17:11.695Z,100350.00
2019-06-07T04:19:43.299Z,100362.00
2019-06-07T04:22:12.368Z,100364.00
2019-06-07T04:24:42.204Z,100362.00
2019-06-07T04:27:11.671Z,100361.00
2019-06-07T04:30:04.865Z,100374.00
2019-06-07T04:32:33.731Z,100366.00
2019-06-07T04:35:02.875Z,100374.00
2019-06-07T04:37:34.160Z,100375.00
2019-06-07T04:40:08.850Z,100372.00
2019-06-07T04:42:44.943Z,100376.00
2019-06-07T04:45:32.938Z,100377.00
2019-06-07T04:47:46.197Z,100384.00
2019-06-07T04:50:15.799Z,100381.00
2019-06-07T04:52:45.877Z,100379.00
2019-06-07T04:55:15.504Z,100381.00
2019-06-07T04:57:44.969Z,100378.00
2019-06-07T05:00:46.764Z,100386.00
2019-06-07T05:02:47.503Z,100383.00
2019-06-07T05:05:16.944Z,100389.00
2019-06-07T05:07:46.520Z,100384.00
2019-06-07T05:10:15.917Z,100382.00
2019-06-07T05:12:45.411Z,100386.00
2019-06-07T05:15:15.009Z,100390.00
2019-06-07T05:17:45.220Z,100384.00
2019-06-07T05:20:16.090Z,100382.00
2019-06-07T05:22:45.739Z,100382.00
2019-06-07T05:25:16.317Z,100385.00
2019-06-07T05:27:46.961Z,100385.00
2019-06-07T05:31:03.105Z,100385.00
2019-06-07T05:33:08.913Z,100388.00
2019-06-07T05:35:41.726Z,100393.00
2019-06-07T05:38:10.402Z,100394.00
2019-06-07T05:40:48.646Z,100385.00
2019-06-07T05:43:39.334Z,100388.00
2019-06-07T05:46:06.378Z,100388.00
2019-06-07T05:48:40.295Z,100388.00
2019-06-07T05:51:07.997Z,100385.00
2019-06-07T05:53:38.992Z,100394.00
2019-06-07T05:56:08.903Z,100392.00
2019-06-07T05:58:41.882Z,100390.00
2019-06-07T06:03:43.303Z,100393.00
2019-06-07T06:06:12.176Z,100397.00
2019-06-07T06:08:42.594Z,100395.00
2019-06-07T06:11:12.923Z,100401.00
2019-06-07T06:14:01.449Z,100401.00
2019-06-07T06:16:13.615Z,100408.00
2019-06-07T06:18:47.057Z,100410.00
2019-06-07T06:21:19.232Z,100403.00
2019-06-07T06:23:48.123Z,100407.00
2019-06-07T06:26:16.693Z,100413.00
2019-06-07T06:28:49.752Z,100419.00
2019-06-07T06:31:21.117Z,100420.00
2019-06-07T06:33:50.578Z,100415.00
2019-06-07T06:36:20.513Z,100423.00
2019-06-07T06:38:51.544Z,100424.00
2019-06-07T06:41:21.267Z,100430.00
2019-06-07T06:43:52.624Z,100421.00
2019-06-07T06:46:38.137Z,100423.00
2019-06-07T06:48:55.337Z,100433.00
2019-06-07T06:51:24.382Z,100435.00
2019-06-07T06:53:53.845Z,100429.00
2019-06-07T06:56:24.463Z,100425.00
2019-06-07T06:59:35.349Z,100418.00
2019-06-07T07:01:25.225Z,100425.00
2019-06-07T07:04:11.458Z,100433.00
2019-06-07T07:06:27.548Z,100430.00
2019-06-07T07:08:58.603Z,100441.00
2019-06-07T07:11:28.047Z,100447.00
2019-06-07T07:13:57.503Z,100456.00
2019-06-07T07:16:26.983Z,100460.00
2019-06-07T07:18:56.632Z,100463.00
2019-06-07T07:21:26.089Z,100464.00
2019-06-07T07:24:19.579Z,100473.00
2019-06-07T07:26:26.715Z,100477.00
2019-06-07T07:28:57.773Z,100477.00
2019-06-07T07:31:27.530Z,100482.00
2019-06-07T07:34:29.007Z,100477.00
2019-06-07T07:36:38.820Z,100479.00
2019-06-07T07:39:04.507Z,100483.00
2019-06-07T07:41:30.560Z,100489.00
2019-06-07T07:44:06.599Z,100479.00
2019-06-07T07:46:31.264Z,100482.00
2019-06-07T07:49:00.724Z,100494.00
2019-06-07T07:51:30.181Z,100496.00
2019-06-07T07:54:10.010Z,100489.00
2019-06-07T07:56:30.804Z,100483.00
2019-06-07T07:59:02.388Z,100484.00
2019-06-07T08:01:31.506Z,100491.00
2019-06-07T08:04:01.070Z,100489.00
2019-06-07T08:06:30.503Z,100485.00
2019-06-07T08:08:59.986Z,100480.00
2019-06-07T08:11:29.463Z,100489.00
2019-06-07T08:13:59.016Z,100477.00
2019-06-07T08:16:28.505Z,100484.00
2019-06-07T08:19:03.596Z,100489.00
2019-06-07T08:21:31.253Z,100487.00
2019-06-07T08:24:04.535Z,100497.00
2019-06-07T08:26:32.051Z,100495.00
2019-06-07T08:29:02.963Z,100497.00
2019-06-07T08:31:32.815Z,100485.00
2019-06-07T08:34:02.327Z,100491.00
2019-06-07T08:36:41.966Z,100499.00
2019-06-07T08:39:07.214Z,100495.00
2019-06-07T08:41:34.230Z,100492.00
2019-06-07T08:44:22.225Z,100497.00
2019-06-07T08:46:36.417Z,100494.00
2019-06-07T08:49:06.075Z,100488.00
2019-06-07T08:51:35.517Z,100490.00
2019-06-07T08:54:21.552Z,100498.00
2019-06-07T08:56:36.182Z,100499.00
2019-06-07T08:59:11.107Z,100497.00
2019-06-07T09:01:37.082Z,100489.00
2019-06-07T09:04:10.765Z,100487.00
2019-06-07T09:07:02.302Z,100493.00
2019-06-07T09:09:09.789Z,100499.00
2019-06-07T09:11:39.276Z,100493.00
2019-06-07T09:14:09.425Z,100490.00
2019-06-07T09:16:39.136Z,100491.00
2019-06-07T09:19:10.851Z,100492.00
2019-06-07T09:21:39.771Z,100495.00
2019-06-07T09:24:11.557Z,100496.00
2019-06-07T09:26:40.413Z,100493.00
2019-06-07T09:29:12.061Z,100487.00
2019-06-07T09:31:52.803Z,100494.00
2019-06-07T09:34:15.088Z,100495.00
2019-06-07T09:36:44.893Z,100501.00
2019-06-07T09:39:14.442Z,100494.00
2019-06-07T09:41:49.534Z,100491.00
2019-06-07T09:44:24.967Z,100498.00
2019-06-07T09:46:46.310Z,100499.00
2019-06-07T09:49:28.518Z,100495.00
2019-06-07T09:51:47.180Z,100491.00
2019-06-07T09:55:02.575Z,100486.00
2019-06-07T09:56:47.835Z,100489.00
2019-06-07T09:59:17.334Z,100495.00
2019-06-07T10:01:46.799Z,100485.00
2019-06-07T10:04:30.244Z,100497.00
2019-06-07T10:06:47.443Z,100498.00
2019-06-07T10:11:48.225Z,100486.00
2019-06-07T10:14:17.658Z,100496.00
2019-06-07T10:16:48.018Z,100495.00
2019-06-07T10:19:17.980Z,100501.00
2019-06-07T10:21:47.405Z,100500.00
2019-06-07T10:24:16.849Z,100496.00
2019-06-07T10:26:46.341Z,100498.00
2019-06-07T10:29:15.794Z,100498.00
2019-06-07T10:31:45.247Z,100505.00
2019-06-07T10:34:14.750Z,100502.00
2019-06-07T10:36:44.217Z,100506.00
2019-06-07T10:39:13.804Z,100512.00
2019-06-07T10:41:43.279Z,100508.00
2019-06-07T10:44:12.748Z,100505.00
2019-06-07T10:46:42.225Z,100506.00
2019-06-07T10:49:12.203Z,100511.00
2019-06-07T10:51:41.820Z,100507.00
2019-06-07T10:54:24.129Z,100510.00
2019-06-07T10:56:42.711Z,100518.00
2019-06-07T10:59:13.597Z,100517.00
2019-06-07T11:01:43.171Z,100517.00
2019-06-07T11:04:13.834Z,100529.00
2019-06-07T11:06:43.372Z,100522.00
2019-06-07T11:09:14.140Z,100524.00
2019-06-07T11:11:43.808Z,100515.00
2019-06-07T11:14:14.619Z,100509.00
2019-06-07T11:16:44.180Z,100510.00
2019-06-07T11:19:16.371Z,100507.00
2019-06-07T11:21:44.839Z,100508.00
2019-06-07T11:24:14.453Z,100506.00
2019-06-07T11:26:43.943Z,100502.00
2019-06-07T11:29:14.916Z,100492.00
2019-06-07T11:31:47.392Z,100495.00
2019-06-07T11:34:15.835Z,100488.00
2019-06-07T11:36:45.269Z,100499.00
2019-06-07T11:39:15.168Z,100492.00
2019-06-07T11:41:44.753Z,100489.00
2019-06-07T11:44:15.005Z,100487.00
2019-06-07T11:46:44.597Z,100496.00
2019-06-07T11:49:19.823Z,100496.00
2019-06-07T11:51:45.335Z,100490.00
2019-06-07T11:54:16.213Z,100496.00
2019-06-07T11:56:45.873Z,100497.00
2019-06-07T11:59:18.403Z,100487.00
2019-06-07T12:01:47.860Z,100479.00
2019-06-07T12:04:32.480Z,100491.00
2019-06-07T12:06:51.359Z,100489.00
2019-06-07T12:09:20.813Z,100474.00
2019-06-07T12:11:50.282Z,100477.00
2019-06-07T12:14:19.721Z,100474.00
2019-06-07T12:16:49.182Z,100473.00
2019-06-07T12:19:19.795Z,100480.00
2019-06-07T12:21:49.317Z,100476.00
2019-06-07T12:24:19.799Z,100470.00
2019-06-07T12:26:50.010Z,100466.00
2019-06-07T12:29:19.474Z,100472.00
2019-06-07T12:31:48.975Z,100473.00
2019-06-07T12:34:19.507Z,100459.00
2019-06-07T12:36:49.103Z,100465.00
2019-06-07T12:39:18.586Z,100459.00
2019-06-07T12:41:48.081Z,100457.00
2019-06-07T12:44:18.583Z,100465.00
2019-06-07T12:46:48.192Z,100463.00
2019-06-07T12:49:17.640Z,100455.00
2019-06-07T12:51:47.120Z,100459.00
2019-06-07T12:54:17.596Z,100455.00
2019-06-07T12:56:47.158Z,100453.00
2019-06-07T12:59:17.862Z,100445.00
2019-06-07T13:01:47.440Z,100441.00
2019-06-07T13:04:16.915Z,100444.00
2019-06-07T13:06:46.379Z,100434.00
2019-06-07T13:09:15.888Z,100429.00
2019-06-07T13:11:45.372Z,100433.00
2019-06-07T13:14:16.016Z,100430.00
2019-06-07T13:16:45.584Z,100426.00
2019-06-07T13:19:16.310Z,100431.00
2019-06-07T13:21:45.911Z,100416.00
2019-06-07T13:24:16.312Z,100418.00
2019-06-07T13:26:45.815Z,100406.00
2019-06-07T13:29:16.425Z,100410.00
2019-06-07T13:31:45.991Z,100411.00
2019-06-07T13:34:16.090Z,100404.00
2019-06-07T13:36:45.739Z,100397.00
2019-06-07T13:39:15.191Z,100400.00
2019-06-07T13:41:44.661Z,100399.00
2019-06-07T13:44:14.111Z,100395.00
2019-06-07T13:46:43.595Z,100399.00
2019-06-07T13:49:14.304Z,100400.00
2019-06-07T13:51:43.831Z,100394.00
2019-06-07T13:54:13.317Z,100387.00
2019-06-07T13:57:00.716Z,100393.00
2019-06-07T13:59:14.381Z,100383.00
2019-06-07T14:01:43.893Z,100367.00
2019-06-07T14:04:13.326Z,100370.00
2019-06-07T14:06:42.864Z,100366.00
2019-06-07T14:09:12.319Z,100368.00
2019-06-07T14:11:50.661Z,100366.00
2019-06-07T14:14:12.985Z,100368.00
2019-06-07T14:16:42.441Z,100367.00
2019-06-07T14:19:11.915Z,100363.00
2019-06-07T14:21:41.359Z,100359.00
2019-06-07T14:24:10.835Z,100356.00
2019-06-07T14:26:41.994Z,100357.00
2019-06-07T14:29:11.362Z,100358.00
2019-06-07T14:31:40.846Z,100351.00
2019-06-07T14:34:10.351Z,100354.00
2019-06-07T14:36:39.888Z,100340.00
2019-06-07T14:39:09.340Z,100353.00
2019-06-07T14:41:38.882Z,100351.00
2019-06-07T14:44:08.353Z,100347.00
2019-06-07T14:46:37.856Z,100348.00
2019-06-07T14:49:07.279Z,100345.00
2019-06-07T14:51:36.862Z,100344.00
2019-06-07T14:54:06.367Z,100342.00
2019-06-07T14:56:35.851Z,100353.00
2019-06-07T14:59:06.496Z,100354.00
2019-06-07T15:01:36.005Z,100364.00
2019-06-07T15:04:05.795Z,100353.00
2019-06-07T15:06:35.278Z,100354.00
2019-06-07T15:09:07.480Z,100358.00
2019-06-07T15:11:36.927Z,100355.00
2019-06-07T15:14:06.489Z,100353.00
2019-06-07T15:16:35.954Z,100356.00
2019-06-07T15:19:05.463Z,100354.00
2019-06-07T15:21:35.153Z,100352.00
2019-06-07T15:24:05.040Z,100361.00
2019-06-07T15:26:34.657Z,100371.00
2019-06-07T15:29:04.316Z,100363.00
2019-06-07T15:31:34.567Z,100361.00
2019-06-07T15:34:04.969Z,100360.00
2019-06-07T15:36:36.412Z,100354.00
2019-06-07T15:39:08.054Z,100351.00
2019-06-07T15:41:37.988Z,100352.00
2019-06-07T15:44:08.722Z,100350.00
2019-06-07T15:46:38.233Z,100344.00
2019-06-07T15:49:08.059Z,100339.00
2019-06-07T15:51:38.662Z,100340.00
2019-06-07T15:54:08.239Z,100336.00
2019-06-07T15:56:39.003Z,100337.00
2019-06-07T15:59:08.737Z,100338.00
2019-06-07T16:01:39.438Z,100333.00
2019-06-07T16:04:09.093Z,100322.00
2019-06-07T16:06:40.285Z,100330.00
2019-06-07T16:09:10.282Z,100323.00
2019-06-07T16:11:41.212Z,100326.00
2019-06-07T16:14:11.106Z,100318.00
2019-06-07T16:16:41.401Z,100325.00
2019-06-07T16:19:10.951Z,100336.00
2019-06-07T16:21:41.522Z,100331.00
2019-06-07T16:24:11.149Z,100332.00
2019-06-07T16:26:40.576Z,100336.00
2019-06-07T16:29:10.139Z,100334.00
2019-06-07T16:31:40.957Z,100338.00
2019-06-07T16:34:10.568Z,100333.00
2019-06-07T16:36:40.391Z,100334.00
2019-06-07T16:39:10.335Z,100337.00
2019-06-07T16:41:40.515Z,100335.00
2019-06-07T16:44:10.061Z,100325.00
2019-06-07T16:46:40.626Z,100330.00
2019-06-07T16:49:10.175Z,100320.00
2019-06-07T16:51:41.160Z,100322.00
2019-06-07T16:54:11.253Z,100322.00
2019-06-07T16:56:44.417Z,100322.00
2019-06-07T16:59:12.087Z,100317.00
2019-06-07T17:01:41.586Z,100309.00
2019-06-07T17:04:11.167Z,100314.00
2019-06-07T17:06:41.684Z,100313.00
2019-06-07T17:09:11.286Z,100311.00
2019-06-07T17:11:40.766Z,100322.00
2019-06-07T17:14:10.206Z,100311.00
2019-06-07T17:16:40.893Z,100315.00
2019-06-07T17:19:10.551Z,100309.00
2019-06-07T17:21:41.225Z,100313.00
2019-06-07T17:24:10.716Z,100312.00
2019-06-07T17:26:41.602Z,100313.00
2019-06-07T17:29:11.297Z,100302.00
2019-06-07T17:31:41.859Z,100299.00
2019-06-07T17:34:11.553Z,100303.00
2019-06-07T17:36:42.250Z,100309.00
2019-06-07T17:39:11.996Z,100309.00
2019-06-07T17:41:52.484Z,100307.00
2019-06-07T17:44:12.949Z,100310.00
2019-06-07T17:46:43.479Z,100319.00
2019-06-07T17:49:13.007Z,100315.00
2019-06-07T17:51:44.026Z,100314.00
2019-06-07T17:54:13.636Z,100310.00
2019-06-07T17:56:44.461Z,100316.00
2019-06-07T17:59:14.060Z,100324.00
2019-06-07T18:02:05.874Z,100324.00
2019-06-07T18:04:14.692Z,100330.00
2019-06-07T18:06:45.486Z,100330.00
2019-06-07T18:09:15.205Z,100326.00
2019-06-07T18:11:45.824Z,100332.00
2019-06-07T18:14:15.509Z,100324.00
2019-06-07T18:16:46.404Z,100315.00
2019-06-07T18:19:15.989Z,100317.00
2019-06-07T18:21:45.460Z,100314.00
2019-06-07T18:24:14.961Z,100313.00
2019-06-07T18:26:44.883Z,100318.00
2019-06-07T18:29:14.349Z,100309.00
2019-06-07T18:31:43.842Z,100316.00
2019-06-07T18:34:13.274Z,100313.00
2019-06-07T18:36:42.748Z,100325.00
2019-06-07T18:39:12.262Z,100330.00
2019-06-07T18:41:41.752Z,100325.00
2019-06-07T18:44:21.056Z,100324.00
2019-06-07T18:46:42.373Z,100335.00
2019-06-07T18:49:11.878Z,100325.00
2019-06-07T18:51:41.336Z,100335.00
2019-06-07T18:54:10.799Z,100335.00
2019-06-07T18:56:40.271Z,100343.00
2019-06-07T18:59:09.759Z,100350.00
2019-06-07T19:01:39.201Z,100345.00
2019-06-07T19:04:28.053Z,100347.00
2019-06-07T19:06:58.425Z,100342.00
2019-06-07T19:09:27.947Z,100349.00
2019-06-07T19:11:57.423Z,100347.00
2019-06-07T19:14:36.732Z,100352.00
2019-06-07T19:16:58.057Z,100351.00
2019-06-07T19:19:27.527Z,100350.00
2019-06-07T19:21:58.280Z,100360.00
2019-06-07T19:24:27.810Z,100368.00
2019-06-07T19:26:58.629Z,100365.00
2019-06-07T19:29:28.222Z,100368.00
2019-06-07T19:31:58.850Z,100363.00
2019-06-07T19:34:28.816Z,100368.00
2019-06-07T19:36:58.251Z,100369.00
2019-06-07T19:39:27.691Z,100371.00
2019-06-07T19:41:58.042Z,100372.00
2019-06-07T19:44:27.648Z,100376.00
2019-06-07T19:46:58.444Z,100373.00
2019-06-07T19:49:28.339Z,100376.00
2019-06-07T19:51:59.021Z,100372.00
2019-06-07T19:54:28.853Z,100375.00
2019-06-07T19:56:59.434Z,100378.00
2019-06-07T19:59:28.982Z,100382.00
2019-06-07T20:01:59.904Z,100377.00
2019-06-07T20:04:29.628Z,100381.00
2019-06-07T20:07:00.269Z,100364.00
2019-06-07T20:09:31.212Z,100365.00
2019-06-07T20:12:00.879Z,100370.00
2019-06-07T20:14:30.314Z,100372.00
2019-06-07T20:17:01.280Z,100376.00
2019-06-07T20:19:30.906Z,100371.00
2019-06-07T20:22:01.042Z,100367.00
2019-06-07T20:24:32.695Z,100361.00
2019-06-07T20:27:02.319Z,100368.00
2019-06-07T20:29:31.862Z,100374.00
2019-06-07T20:32:02.503Z,100366.00
2019-06-07T20:34:32.090Z,100374.00
2019-06-07T20:37:05.030Z,100359.00
2019-06-07T20:39:32.769Z,100367.00
2019-06-07T20:42:03.378Z,100368.00
2019-06-07T20:44:32.956Z,100363.00
2019-06-07T20:47:02.419Z,100359.00
2019-06-07T20:49:31.960Z,100359.00
2019-06-07T20:52:03.050Z,100361.00
2019-06-07T20:54:32.618Z,100352.00
2019-06-07T20:57:02.634Z,100354.00
2019-06-07T20:59:32.130Z,100361.00
2019-06-07T21:02:02.965Z,100354.00
2019-06-07T21:04:32.556Z,100351.00
2019-06-07T21:07:03.346Z,100346.00
2019-06-07T21:09:32.743Z,100344.00
2019-06-07T21:12:02.250Z,100347.00
2019-06-07T21:14:31.706Z,100343.00
2019-06-07T21:17:02.125Z,100334.00
2019-06-07T21:19:31.874Z,100334.00
2019-06-07T21:22:02.377Z,100338.00
2019-06-07T21:24:31.882Z,100338.00
2019-06-07T21:27:01.712Z,100334.00
2019-06-07T21:29:32.503Z,100337.00
2019-06-07T21:32:03.201Z,100333.00
2019-06-07T21:34:33.608Z,100325.00
2019-06-07T21:37:03.790Z,100323.00
2019-06-07T21:39:33.936Z,100323.00
2019-06-07T21:42:04.198Z,100338.00
2019-06-07T21:44:33.775Z,100336.00
2019-06-07T21:47:04.224Z,100322.00
2019-06-07T21:49:33.886Z,100323.00
2019-06-07T21:52:04.377Z,100326.00
2019-06-07T21:54:33.862Z,100324.00
2019-06-07T21:57:03.311Z,100326.00
2019-06-07T21:59:32.784Z,100322.00
2019-06-07T22:02:03.230Z,100315.00
2019-06-07T22:04:32.824Z,100321.00
2019-06-07T22:07:03.290Z,100319.00
2019-06-07T22:09:32.800Z,100320.00
2019-06-07T22:12:04.354Z,100326.00
2019-06-07T22:14:33.731Z,100333.00
2019-06-07T22:17:04.071Z,100318.00
2019-06-07T22:19:33.502Z,100315.00
2019-06-07T22:22:03.794Z,100313.00
2019-06-07T22:24:34.154Z,100306.00
2019-06-07T22:27:04.837Z,100310.00
2019-06-07T22:29:34.457Z,100308.00
2019-06-07T22:32:03.952Z,100305.00
2019-06-07T22:34:33.370Z,100306.00
2019-06-07T22:37:02.870Z,100304.00
2019-06-07T22:39:32.312Z,100297.00
2019-06-07T22:42:01.790Z,100299.00
2019-06-07T22:44:31.253Z,100303.00
2019-06-07T22:47:00.703Z,100298.00
2019-06-07T22:49:30.188Z,100301.00
2019-06-07T22:52:08.570Z,100297.00
2019-06-07T22:54:30.836Z,100294.00
2019-06-07T22:57:01.967Z,100296.00
2019-06-07T22:59:31.397Z,100286.00
2019-06-07T23:02:00.879Z,100289.00
2019-06-07T23:04:30.331Z,100285.00
2019-06-07T23:06:59.840Z,100284.00
2019-06-07T23:09:29.339Z,100284.00
2019-06-07T23:11:58.807Z,100283.00
2019-06-07T23:14:28.242Z,100286.00
2019-06-07T23:16:57.688Z,100285.00
2019-06-07T23:19:27.146Z,100280.00
2019-06-07T23:21:56.595Z,100288.00
2019-06-07T23:24:26.219Z,100286.00
2019-06-07T23:26:55.695Z,100291.00
2019-06-07T23:29:25.150Z,100286.00
2019-06-07T23:31:54.586Z,100283.00
2019-06-07T23:34:24.066Z,100292.00
2019-06-07T23:36:53.501Z,100291.00
2019-06-07T23:39:22.941Z,100288.00
2019-06-07T23:41:52.419Z,100291.00
2019-06-07T23:44:21.868Z,100299.00
2019-06-07T23:46:51.579Z,100302.00
2019-06-07T23:49:22.682Z,100301.00
2019-06-07T23:51:52.208Z,100301.00
2019-06-07T23:54:22.117Z,100300.00
2019-06-07T23:56:51.709Z,100300.00
2019-06-07T23:59:22.287Z,100301.00
